Mattawamkeag, Maine
Current Conditions -  °F | °C
As of 4:53 AM on Friday 19 Dec 2014 (Local Time) from KHUL Reporting Station
Overcast Overcast  
Wind Chill: 14°   Ceiling: 1500
Heat Index: 25°   Visibility: 10mi
Dew Point: 20°   Wind: 13mph
Humidity: 81%   Direction: 330°NNW
Pressure: 29.72"   Gusts: NA
Location:  45.51°N, 68.35°W
Report Text: KHUL 190953Z AUTO 33011KT 10SM OVC015 M04/M07 A2972 RMK AO2 SLP073 T10391067
Loading
Personal Weather Stations






























Interactive Weather Map New forecast layout! Learn more

10-Day Weather Forecast

Advertisements
Track Severe Weather on mobile